Station Historical Data
Daily Summary for May 30, 2012 Units:  Metric    English   Both
« Previous Day
Next Day »
Daily Weekly Monthly Yearly Custom
  High: Low: Average:
Temperature: 31.1 °C 15.8 °C 23 °C
Dew Point: 22.3 °C 13.2 °C 17.8 °C
Humidity: 95% 34% 76%
Wind Speed: 9.7km/h 0km/h 2.6km/h
Wind Gust: 14.5km/h - -
Wind- - SSE
Pressure: 1011.1 hPa 1008 hPa -
Precipitation: 0.51 mm    
Historical Graphs
 
 
Tabular Data for May 30, 2012
Time Temperature Dew Point Pressure Wind Wind Speed Wind Gust Humidity Rainfall Rate (Hourly) Conditions
00:00 18.4 °C 17.4 °C 1009 hPa NW 1.6 km/h 3.2 km/h 94% 0 mm
00:05 18.3 °C 17.5 °C 1009 hPa Calm   3.2 km/h 95% 0 mm
00:10 18.3 °C 17.5 °C 1009 hPa Calm     95% 0 mm
00:11 18.3 °C 17.5 °C 1009 hPa Calm     95% 0 mm
00:16 18.3 °C 17.4 °C 1009 hPa WSW 1.6 km/h 1.6 km/h 95% 0 mm
00:21 18.3 °C 17.4 °C 1009 hPa Calm   1.6 km/h 95% 0 mm
00:26 18.3 °C 17.4 °C 1009 hPa WSW 1.6 km/h 1.6 km/h 95% 0 mm
00:31 18.3 °C 17.4 °C 1009 hPa Calm   1.6 km/h 95% 0 mm
00:36 18.2 °C 17.4 °C 1009 hPa Calm   1.6 km/h 95% 0 mm
00:41 18.1 °C 17.3 °C 1009 hPa West 1.6 km/h 1.6 km/h 95% 0 mm
00:46 18 °C 17.2 °C 1009 hPa NW 1.6 km/h 3.2 km/h 95% 0 mm
00:51 17.9 °C 17.1 °C 1009.4 hPa NNW 1.6 km/h 3.2 km/h 95% 0 mm
00:56 17.8 °C 16.9 °C 1009.4 hPa North 1.6 km/h 3.2 km/h 95% 0 mm
01:01 17.8 °C 17 °C 1009.4 hPa North 1.6 km/h 1.6 km/h 95% 0 mm
01:06 17.8 °C 17 °C 1009.4 hPa NNE 1.6 km/h 1.6 km/h 95% 0 mm
01:11 17.7 °C 16.9 °C 1009.4 hPa NNE 1.6 km/h 3.2 km/h 95% 0 mm
01:16 17.7 °C 16.8 °C 1009.4 hPa NNE 1.6 km/h 1.6 km/h 95% 0 mm
01:21 17.6 °C 16.8 °C 1009.4 hPa North 1.6 km/h 3.2 km/h 95% 0 mm
01:26 17.5 °C 16.7 °C 1009.7 hPa NNE 3.2 km/h 8 km/h 95% 0 mm
01:31 17.6 °C 16.8 °C 1009.7 hPa NE 4.8 km/h 6.4 km/h 95% 0 mm
01:36 17.6 °C 16.8 °C 1009.7 hPa NNE 4.8 km/h 8 km/h 95% 0 mm
01:41 17.5 °C 16.7 °C 1009.7 hPa NNE 3.2 km/h 6.4 km/h 95% 0 mm
01:47 17.4 °C 16.7 °C 1009.7 hPa NNE 3.2 km/h 4.8 km/h 95% 0 mm
01:52 17.4 °C 16.6 °C 1009.7 hPa ENE 3.2 km/h 4.8 km/h 95% 0 mm
01:57 17.4 °C 16.7 °C 1009.7 hPa NE 4.8 km/h 6.4 km/h 95% 0 mm
02:02 17.4 °C 16.7 °C 1009.7 hPa ENE 6.4 km/h 6.4 km/h 95% 0 mm
02:07 17.4 °C 16.6 °C 1009.7 hPa ENE 1.6 km/h 4.8 km/h 95% 0 mm
02:12 17.4 °C 16.6 °C 1009.4 hPa ENE 3.2 km/h 4.8 km/h 95% 0 mm
02:17 17.3 °C 16.6 °C 1009.4 hPa ENE 1.6 km/h 4.8 km/h 95% 0 mm
02:22 17.3 °C 16.5 °C 1009.4 hPa NE 3.2 km/h 3.2 km/h 95% 0 mm
02:27 17.2 °C 16.4 °C 1009.4 hPa NNE 3.2 km/h 4.8 km/h 95% 0 mm
02:32 17.1 °C 16.3 °C 1009.4 hPa NNE 1.6 km/h 3.2 km/h 95% 0 mm
02:37 17.1 °C 16.2 °C 1009.7 hPa Calm     95% 0 mm
02:42 16.9 °C 16.1 °C 1009.7 hPa Calm   1.6 km/h 95% 0 mm
02:47 16.9 °C 16.1 °C 1009.7 hPa Calm   3.2 km/h 95% 0 mm
02:52 16.9 °C 16.1 °C 1009.7 hPa NE 1.6 km/h 3.2 km/h 95% 0 mm
02:57 16.9 °C 16.1 °C 1009.7 hPa ENE 1.6 km/h 4.8 km/h 95% 0 mm
03:02 16.9 °C 16.1 °C 1009.7 hPa NE 3.2 km/h 4.8 km/h 95% 0 mm
03:07 16.9 °C 16.1 °C 1009.7 hPa NE 4.8 km/h 4.8 km/h 95% 0 mm
03:12 16.9 °C 16.1 °C 1009.7 hPa NE 4.8 km/h 8 km/h 95% 0 mm
03:17 16.9 °C 16.1 °C 1009.7 hPa NNE 3.2 km/h 4.8 km/h 95% 0 mm
03:22 16.8 °C 16 °C 1009.7 hPa NNE 3.2 km/h 3.2 km/h 95% 0 mm
03:27 16.7 °C 15.9 °C 1009.7 hPa NNW 1.6 km/h 3.2 km/h 95% 0 mm
03:32 16.7 °C 15.9 °C 1009.7 hPa North 1.6 km/h 3.2 km/h 95% 0 mm
03:37 16.6 °C 15.8 °C 1009.7 hPa North 1.6 km/h 3.2 km/h 95% 0 mm
03:42 16.6 °C 15.8 °C 1009.7 hPa NE 1.6 km/h 3.2 km/h 95% 0 mm
03:48 16.6 °C 15.8 °C 1009.7 hPa NNE 1.6 km/h 3.2 km/h 95% 0 mm
03:53 16.7 °C 15.9 °C 1009.7 hPa NNE 3.2 km/h 6.4 km/h 95% 0 mm
03:58 16.7 °C 15.9 °C 1009.7 hPa NNE 3.2 km/h 4.8 km/h 95% 0 mm
04:03 16.7 °C 15.9 °C 1009.4 hPa NE 4.8 km/h 6.4 km/h 95% 0 mm
04:08 16.7 °C 15.9 °C 1009.4 hPa NNE 1.6 km/h 4.8 km/h 95% 0 mm
04:13 16.7 °C 15.9 °C 1009.4 hPa NE 3.2 km/h 4.8 km/h 95% 0 mm
04:18 16.7 °C 15.9 °C 1009.7 hPa NNE 1.6 km/h 3.2 km/h 95% 0 mm
04:23 16.7 °C 15.9 °C 1009.7 hPa NE 1.6 km/h 4.8 km/h 95% 0 mm
04:28 16.6 °C 15.8 °C 1009.4 hPa NNE 3.2 km/h 4.8 km/h 95% 0 mm
04:33 16.6 °C 15.8 °C 1009.7 hPa NNE 1.6 km/h 3.2 km/h 95% 0 mm
04:38 16.5 °C 15.7 °C 1009.7 hPa NNE 1.6 km/h 3.2 km/h 95% 0 mm
04:43 16.6 °C 15.8 °C 1009.7 hPa NE 4.8 km/h 4.8 km/h 95% 0 mm
04:48 16.6 °C 15.8 °C 1009.4 hPa NE 3.2 km/h 6.4 km/h 95% 0 mm
04:53 16.6 °C 15.8 °C 1009.4 hPa North 3.2 km/h 4.8 km/h 95% 0 mm
04:58 16.6 °C 15.8 °C 1009.4 hPa NE 1.6 km/h 4.8 km/h 95% 0 mm
05:03 16.7 °C 15.9 °C 1009.4 hPa NE 6.4 km/h 6.4 km/h 95% 0 mm
05:08 16.7 °C 15.9 °C 1009.4 hPa NNE 3.2 km/h 6.4 km/h 95% 0 mm
05:13 16.7 °C 15.9 °C 1009.4 hPa NE 4.8 km/h 6.4 km/h 95% 0 mm
05:18 16.7 °C 15.9 °C 1009.4 hPa Calm   4.8 km/h 95% 0 mm
05:23 16.6 °C 15.8 °C 1009.4 hPa NNE 3.2 km/h 3.2 km/h 95% 0 mm
05:28 16.6 °C 15.8 °C 1009.7 hPa Calm   3.2 km/h 95% 0 mm
05:33 16.4 °C 15.7 °C 1009.7 hPa Calm   1.6 km/h 95% 0 mm
05:38 16.4 °C 15.7 °C 1009.7 hPa Calm   1.6 km/h 95% 0 mm
05:43 16.4 °C 15.7 °C 1009.7 hPa Calm   1.6 km/h 95% 0 mm
05:48 16.5 °C 15.7 °C 1009.7 hPa Calm   1.6 km/h 95% 0 mm
05:53 16.4 °C 15.7 °C 1009.7 hPa Calm     95% 0 mm
05:58 16.4 °C 15.6 °C 1009.7 hPa Calm     95% 0 mm
06:03 16.3 °C 15.6 °C 1009.7 hPa Calm     95% 0 mm
06:09 16.2 °C 15.4 °C 1009.7 hPa Calm     95% 0 mm
06:14 16.2 °C 15.4 °C 1009.7 hPa Calm   1.6 km/h 95% 0 mm
06:19 16.2 °C 15.4 °C 1009.7 hPa ESE 1.6 km/h 1.6 km/h 95% 0 mm
06:24 16.2 °C 15.4 °C 1009.7 hPa ESE 1.6 km/h 1.6 km/h 95% 0 mm
06:29 16.1 °C 15.3 °C 1009.7 hPa ESE 1.6 km/h 1.6 km/h 95% 0 mm
06:34 16.1 °C 15.3 °C 1010 hPa ESE 1.6 km/h 3.2 km/h 95% 0 mm
06:39 16 °C 15.2 °C 1010 hPa ESE 1.6 km/h 1.6 km/h 95% 0 mm
06:44 16 °C 15.2 °C 1010 hPa ESE 1.6 km/h 1.6 km/h 95% 0 mm
06:49 15.9 °C 15.2 °C 1010 hPa Calm     95% 0 mm
06:54 15.8 °C 15.1 °C 1010 hPa Calm     95% 0 mm
06:59 15.8 °C 15 °C 1010 hPa Calm     95% 0 mm
07:04 15.8 °C 15.1 °C 1010 hPa Calm     95% 0 mm
07:09 15.9 °C 15.2 °C 1010.4 hPa Calm     95% 0 mm
07:14 15.9 °C 15.1 °C 1010.4 hPa Calm     95% 0 mm
07:19 15.8 °C 15.1 °C 1010.4 hPa Calm     95% 0 mm
07:24 15.9 °C 15.1 °C 1010.4 hPa Calm     95% 0 mm
07:29 16 °C 15.2 °C 1010.4 hPa Calm     95% 0 mm
07:34 16.2 °C 15.4 °C 1010.4 hPa Calm     95% 0 mm
07:39 16.2 °C 15.4 °C 1010.4 hPa SE 1.6 km/h 1.6 km/h 95% 0 mm
07:44 16.3 °C 15.6 °C 1010.4 hPa SW 1.6 km/h 1.6 km/h 95% 0 mm
07:49 16.7 °C 15.9 °C 1010.7 hPa WSW 1.6 km/h 1.6 km/h 95% 0 mm
07:54 17.1 °C 16.2 °C 1010.4 hPa WSW 3.2 km/h 3.2 km/h 95% 0 mm
07:59 17 °C 16.2 °C 1010.7 hPa West 1.6 km/h 3.2 km/h 95% 0 mm
08:04 17.1 °C 16.2 °C 1010.7 hPa West 1.6 km/h 4.8 km/h 95% 0 mm
08:09 17.3 °C 16.5 °C 1010.7 hPa Calm   3.2 km/h 95% 0 mm
08:14 17.4 °C 16.6 °C 1010.7 hPa West 3.2 km/h 3.2 km/h 95% 0 mm
08:19 17.6 °C 16.8 °C 1010.7 hPa West 1.6 km/h 3.2 km/h 95% 0 mm
08:24 17.8 °C 16.9 °C 1010.7 hPa WNW 3.2 km/h 3.2 km/h 95% 0 mm
08:29 17.9 °C 17.1 °C 1010.7 hPa NW 1.6 km/h 3.2 km/h 95% 0 mm
08:34 18.1 °C 17.1 °C 1010.7 hPa West 1.6 km/h 1.6 km/h 94% 0 mm
08:39 18.4 °C 17.4 °C 1010.7 hPa WNW 3.2 km/h 3.2 km/h 94% 0 mm
08:44 18.4 °C 17.4 °C 1010.7 hPa NW 1.6 km/h 3.2 km/h 94% 0 mm
08:49 18.7 °C 17.7 °C 1010.7 hPa Calm   1.6 km/h 94% 0 mm
08:54 19.1 °C 18.1 °C 1010.7 hPa Calm   1.6 km/h 94% 0 mm
08:59 19.6 °C 18.6 °C 1010.7 hPa Calm   1.6 km/h 94% 0 mm
09:04 19.9 °C 18.9 °C 1010.7 hPa Calm     94% 0 mm
09:09 20.2 °C 19 °C 1011.1 hPa NNW 1.6 km/h 1.6 km/h 93% 0 mm
09:14 20.3 °C 19.2 °C 1010.7 hPa NNW 1.6 km/h 3.2 km/h 93% 0 mm
09:19 20.7 °C 19.5 °C 1011.1 hPa Calm   1.6 km/h 93% 0 mm
09:24 20.9 °C 19.6 °C 1011.1 hPa Calm   3.2 km/h 92% 0 mm
09:29 21.3 °C 20.1 °C 1011.1 hPa NE 1.6 km/h 3.2 km/h 93% 0 mm
09:34 21.5 °C 20.2 °C 1011.1 hPa Calm   3.2 km/h 92% 0 mm
09:40 21.8 °C 20.4 °C 1010.7 hPa NNE 3.2 km/h 4.8 km/h 92% 0 mm
09:45 22 °C 20.4 °C 1010.7 hPa NNE 1.6 km/h 3.2 km/h 91% 0 mm
09:50 22.3 °C 20.7 °C 1011.1 hPa ENE 1.6 km/h 4.8 km/h 91% 0 mm
09:55 22.6 °C 20.8 °C 1011.1 hPa NNE 3.2 km/h 4.8 km/h 90% 0 mm
10:00 22.8 °C 20.9 °C 1011.1 hPa Calm   6.4 km/h 89% 0 mm
10:05 22.9 °C 21 °C 1011.1 hPa North 3.2 km/h 4.8 km/h 89% 0 mm
10:10 23.1 °C 21.4 °C 1011.1 hPa NNW 1.6 km/h 3.2 km/h 90% 0 mm
10:15 23.3 °C 21.2 °C 1011.1 hPa NE 4.8 km/h 6.4 km/h 88% 0 mm
10:20 23.4 °C 21.2 °C 1011.1 hPa ENE 3.2 km/h 4.8 km/h 87% 0 mm
10:25 23.6 °C 21.3 °C 1011.1 hPa WNW 1.6 km/h 4.8 km/h 87% 0 mm
10:30 23.8 °C 21.6 °C 1011.1 hPa NNW 4.8 km/h 4.8 km/h 87% 0 mm
10:35 23.9 °C 21.4 °C 1011.1 hPa NNW 3.2 km/h 8 km/h 86% 0 mm
10:40 24.1 °C 21.6 °C 1011.1 hPa Calm   3.2 km/h 86% 0 mm
10:45 24.6 °C 21.7 °C 1011.1 hPa Calm   3.2 km/h 84% 0 mm
10:50 24.8 °C 21.6 °C 1011.1 hPa WNW 3.2 km/h 4.8 km/h 82% 0 mm
10:55 25 °C 22.3 °C 1011.1 hPa NNE 1.6 km/h 3.2 km/h 85% 0 mm
11:00 25.2 °C 21.9 °C 1011.1 hPa Calm   6.4 km/h 82% 0 mm
11:05 25.1 °C 21.2 °C 1011.1 hPa NE 1.6 km/h 4.8 km/h 79% 0 mm
11:10 25.1 °C 21.2 °C 1011.1 hPa East 1.6 km/h 1.6 km/h 79% 0 mm
11:15 25.3 °C 21 °C 1011.1 hPa North 1.6 km/h 4.8 km/h 77% 0 mm
11:20 25.4 °C 20.7 °C 1011.1 hPa Calm   4.8 km/h 75% 0 mm
11:25 25.7 °C 20.9 °C 1011.1 hPa West 1.6 km/h 3.2 km/h 75% 0 mm
11:31 25.9 °C 21.1 °C 1011.1 hPa North 3.2 km/h 8 km/h 75% 0 mm
11:36 25.8 °C 21.3 °C 1011.1 hPa North 3.2 km/h 6.4 km/h 76% 0 mm
11:41 25.9 °C 20.7 °C 1011.1 hPa West 3.2 km/h 6.4 km/h 73% 0 mm
11:46 26.1 °C 21.1 °C 1011.1 hPa WSW 3.2 km/h 3.2 km/h 74% 0 mm
11:51 26.2 °C 21.7 °C 1011.1 hPa NW 1.6 km/h 4.8 km/h 76% 0 mm
11:56 26.4 °C 21.4 °C 1011.1 hPa NW 6.4 km/h 6.4 km/h 74% 0 mm
12:01 26.3 °C 20.9 °C 1011.1 hPa NNW 1.6 km/h 6.4 km/h 72% 0 mm
12:06 26.4 °C 20.8 °C 1011.1 hPa NNW 3.2 km/h 4.8 km/h 71% 0 mm
12:11 26.6 °C 20.9 °C 1011.1 hPa NW 3.2 km/h 4.8 km/h 71% 0 mm
12:16 26.8 °C 20.8 °C 1011.1 hPa Calm   8 km/h 70% 0 mm
12:21 27.1 °C 20.7 °C 1011.1 hPa West 3.2 km/h 3.2 km/h 68% 0 mm
12:26 27.1 °C 20.4 °C 1011.1 hPa NNE 3.2 km/h 3.2 km/h 67% 0 mm
12:31 27.2 °C 21 °C 1011.1 hPa WSW 4.8 km/h 8 km/h 69% 0 mm
12:36 27.2 °C 20.8 °C 1011.1 hPa ESE 1.6 km/h 4.8 km/h 68% 0 mm
12:41 27.4 °C 21 °C 1010.7 hPa SW 3.2 km/h 6.4 km/h 68% 0 mm
12:46 27.3 °C 20.9 °C 1010.7 hPa WNW 4.8 km/h 4.8 km/h 68% 0 mm
12:51 27.6 °C 20.4 °C 1010.7 hPa NW 4.8 km/h 9.7 km/h 65% 0 mm
12:56 27.4 °C 20.8 °C 1010.7 hPa NNE 6.4 km/h 8 km/h 67% 0 mm
13:01 27.7 °C 20 °C 1010.7 hPa WNW 3.2 km/h 8 km/h 63% 0 mm
13:06 27.8 °C 19.8 °C 1010.7 hPa West 6.4 km/h 6.4 km/h 62% 0 mm
13:11 27.8 °C 18.8 °C 1010.7 hPa WNW 1.6 km/h 9.7 km/h 58% 0 mm
13:16 27.9 °C 19.4 °C 1010.7 hPa WNW 8 km/h 11.3 km/h 60% 0 mm
13:21 27.9 °C 18.4 °C 1010.7 hPa WSW 4.8 km/h 8 km/h 56% 0 mm
13:26 28.1 °C 18.2 °C 1010.7 hPa SW 4.8 km/h 9.7 km/h 55% 0 mm
13:31 28.4 °C 18.8 °C 1010.7 hPa NW 3.2 km/h 6.4 km/h 56% 0 mm
13:37 28.6 °C 18.3 °C 1010.7 hPa NNE 3.2 km/h 8 km/h 54% 0 mm
13:42 28.7 °C 19.1 °C 1010.7 hPa Calm   4.8 km/h 56% 0 mm
13:47 28.9 °C 18.4 °C 1010.4 hPa NNE 4.8 km/h 11.3 km/h 53% 0 mm
13:52 28.8 °C 17.7 °C 1010.4 hPa SE 3.2 km/h 6.4 km/h 51% 0 mm
13:57 28.9 °C 17.8 °C 1010.4 hPa Calm   6.4 km/h 51% 0 mm
14:02 29.2 °C 17.1 °C 1010.4 hPa SSW 1.6 km/h 4.8 km/h 48% 0 mm
14:07 29.4 °C 17.6 °C 1010 hPa ENE 4.8 km/h 6.4 km/h 49% 0 mm
14:12 29.5 °C 18.6 °C 1010 hPa North 4.8 km/h 4.8 km/h 52% 0 mm
14:17 29.4 °C 19.2 °C 1010 hPa Calm   6.4 km/h 54% 0 mm
14:22 29.7 °C 19.1 °C 1010 hPa West 3.2 km/h 3.2 km/h 53% 0 mm
14:27 29.8 °C 17.9 °C 1009.7 hPa NW 4.8 km/h 14.5 km/h 49% 0 mm
14:32 29.4 °C 19.4 °C 1009.7 hPa NW 1.6 km/h 9.7 km/h 55% 0 mm
14:37 29.3 °C 18.1 °C 1009.7 hPa NNW 4.8 km/h 11.3 km/h 51% 0 mm
14:38 29.2 °C 18.9 °C 1009.7 hPa West 3.2 km/h 11.3 km/h 54% 0 mm
14:43 29.4 °C 19.4 °C 1009.7 hPa WNW 3.2 km/h 4.8 km/h 55% 0 mm
14:48 29.6 °C 18.4 °C 1009.7 hPa Calm   4.8 km/h 51% 0 mm
14:53 29.7 °C 18.8 °C 1009.7 hPa WSW 4.8 km/h 11.3 km/h 52% 0 mm
14:58 29.7 °C 17.8 °C 1009.7 hPa North 4.8 km/h 9.7 km/h 49% 0 mm
15:03 29.6 °C 18.1 °C 1009.4 hPa NNW 3.2 km/h 9.7 km/h 50% 0 mm
15:09 29.7 °C 17.6 °C 1009.4 hPa SE 1.6 km/h 6.4 km/h 48% 0 mm
15:14 30.2 °C 18.9 °C 1009.4 hPa NE 3.2 km/h 6.4 km/h 51% 0 mm
15:19 30.1 °C 17.2 °C 1009.4 hPa North 6.4 km/h 9.7 km/h 46% 0 mm
15:24 30.2 °C 17 °C 1009.4 hPa ESE 3.2 km/h 4.8 km/h 45% 0 mm
15:29 30.2 °C 16.3 °C 1009.4 hPa Calm   4.8 km/h 43% 0 mm
15:34 30.7 °C 17.1 °C 1009 hPa North 3.2 km/h 4.8 km/h 44% 0 mm
15:39 30.7 °C 17.4 °C 1009.4 hPa Calm   4.8 km/h 45% 0 mm
15:44 30.8 °C 17.6 °C 1009.4 hPa WNW 3.2 km/h 4.8 km/h 45% 0 mm
15:49 30.9 °C 17.9 °C 1009 hPa WNW 4.8 km/h 4.8 km/h 46% 0 mm
15:54 31 °C 18.1 °C 1009 hPa North 6.4 km/h 6.4 km/h 46% 0 mm
15:59 30.8 °C 14.8 °C 1009 hPa NNE 8 km/h 8 km/h 38% 0 mm
16:04 30.6 °C 14.3 °C 1008.7 hPa NW 3.2 km/h 6.4 km/h 37% 0 mm
16:09 30.7 °C 14.7 °C 1009 hPa NW 6.4 km/h 9.7 km/h 38% 0 mm
16:14 30.6 °C 15.8 °C 1009 hPa NW 4.8 km/h 8 km/h 41% 0 mm
16:19 30.7 °C 13.9 °C 1009 hPa NE 3.2 km/h 9.7 km/h 36% 0 mm
16:24 30.7 °C 14.4 °C 1009 hPa East 6.4 km/h 6.4 km/h 37% 0 mm
16:29 30.7 °C 13.9 °C 1009 hPa WNW 6.4 km/h 9.7 km/h 36% 0 mm
16:34 30.4 °C 14.9 °C 1008.7 hPa West 3.2 km/h 8 km/h 39% 0 mm
16:39 30.8 °C 16 °C 1008.7 hPa Calm   4.8 km/h 41% 0 mm
16:44 31.1 °C 16.3 °C 1009 hPa WNW 9.7 km/h 9.7 km/h 41% 0 mm
16:49 30.8 °C 15.6 °C 1008.7 hPa NW 6.4 km/h 11.3 km/h 40% 0 mm
16:54 30.6 °C 15.1 °C 1008.7 hPa WNW 4.8 km/h 8 km/h 39% 0 mm
16:59 30.6 °C 15.4 °C 1008.7 hPa West 3.2 km/h 6.4 km/h 40% 0 mm
17:04 30.5 °C 15.8 °C 1008.7 hPa WNW 3.2 km/h 6.4 km/h 41% 0 mm
17:09 30.5 °C 13.8 °C 1008.7 hPa WNW 3.2 km/h 6.4 km/h 36% 0 mm
17:14 30.7 °C 14.3 °C 1008.7 hPa North 3.2 km/h 4.8 km/h 37% 0 mm
17:19 30.9 °C 13.2 °C 1008.7 hPa NE 1.6 km/h 3.2 km/h 34% 0 mm
17:24 31.1 °C 14.7 °C 1008.7 hPa WNW 3.2 km/h 3.2 km/h 37% 0 mm
17:29 31.1 °C 17.4 °C 1008.4 hPa NW 3.2 km/h 4.8 km/h 44% 0 mm
17:34 30.6 °C 15.1 °C 1008.7 hPa NW 4.8 km/h 6.4 km/h 39% 0 mm
17:39 30.4 °C 16.4 °C 1008.7 hPa NNW 3.2 km/h 4.8 km/h 43% 0 mm
17:44 30.3 °C 16 °C 1008.7 hPa WNW 4.8 km/h 6.4 km/h 42% 0 mm
17:49 30.3 °C 15.6 °C 1008.7 hPa NW 6.4 km/h 8 km/h 41% 0 mm
17:54 30 °C 16.1 °C 1008.4 hPa WNW 6.4 km/h 8 km/h 43% 0 mm
18:00 29.7 °C 16.9 °C 1008.4 hPa WNW 4.8 km/h 6.4 km/h 46% 0 mm
18:05 29.5 °C 15.6 °C 1008.4 hPa WNW 4.8 km/h 6.4 km/h 43% 0 mm
18:07 29.4 °C 15.9 °C 1008.4 hPa NW 3.2 km/h 6.4 km/h 44% 0 mm
18:12 29.2 °C 15.7 °C 1008.4 hPa WNW 3.2 km/h 6.4 km/h 44% 0 mm
18:18 29 °C 16.2 °C 1008.4 hPa WNW 1.6 km/h 4.8 km/h 46% 0 mm
18:23 28.8 °C 17.3 °C 1008.4 hPa NW 3.2 km/h 4.8 km/h 50% 0 mm
18:28 28.6 °C 18.3 °C 1008.4 hPa NW 3.2 km/h 6.4 km/h 54% 0 mm
18:33 28.3 °C 18.9 °C 1008 hPa NW 1.6 km/h 3.2 km/h 57% 0 mm
18:38 28.2 °C 18.8 °C 1008 hPa NNW 3.2 km/h 4.8 km/h 57% 0 mm
18:43 28.1 °C 19 °C 1008 hPa NNW 3.2 km/h 4.8 km/h 58% 0 mm
18:48 28.1 °C 19.8 °C 1008.4 hPa NW 1.6 km/h 3.2 km/h 61% 0 mm
18:53 27.9 °C 19.7 °C 1008.4 hPa NW 1.6 km/h 1.6 km/h 61% 0 mm
18:58 27.9 °C 19.4 °C 1008.4 hPa NW 1.6 km/h 3.2 km/h 60% 0 mm
19:03 27.8 °C 20.1 °C 1008.4 hPa NW 1.6 km/h 3.2 km/h 63% 0 mm
19:08 27.6 °C 20.4 °C 1008.4 hPa NNW 3.2 km/h 4.8 km/h 65% 0 mm
19:13 27.4 °C 20.1 °C 1008.4 hPa NNW 3.2 km/h 4.8 km/h 64% 0 mm
19:18 27.4 °C 20 °C 1008.4 hPa NNE 3.2 km/h 4.8 km/h 64% 0 mm
19:23 27.3 °C 19.9 °C 1008 hPa North 3.2 km/h 4.8 km/h 64% 0 mm
19:28 27.2 °C 19.8 °C 1008 hPa North 3.2 km/h 3.2 km/h 64% 0 mm
19:33 27.1 °C 19.4 °C 1008 hPa NNW 3.2 km/h 6.4 km/h 63% 0 mm
19:38 26.9 °C 19.6 °C 1008.4 hPa North 3.2 km/h 8 km/h 64% 0 mm
19:43 26.8 °C 19.4 °C 1008.4 hPa North 4.8 km/h 6.4 km/h 64% 0 mm
19:48 26.8 °C 19.7 °C 1008.4 hPa Calm   3.2 km/h 65% 0 mm
19:53 26.6 °C 19.7 °C 1008.4 hPa North 1.6 km/h 3.2 km/h 66% 0 mm
19:58 26.5 °C 19.6 °C 1008.4 hPa Calm   3.2 km/h 66% 0 mm
20:03 26.4 °C 19.6 °C 1008.4 hPa Calm   1.6 km/h 66% 0 mm
20:08 26.4 °C 19.6 °C 1008.4 hPa Calm   1.6 km/h 66% 0 mm
20:13 26.3 °C 19.7 °C 1008.4 hPa Calm   1.6 km/h 67% 0 mm
20:18 26.1 °C 19.8 °C 1008.4 hPa Calm     68% 0 mm
20:23 25.9 °C 19.6 °C 1008.4 hPa Calm   1.6 km/h 68% 0 mm
20:28 25.8 °C 19.5 °C 1008.4 hPa Calm   1.6 km/h 68% 0 mm
20:33 25.7 °C 19.4 °C 1008.4 hPa NNE 1.6 km/h 1.6 km/h 68% 0 mm
20:38 25.6 °C 19 °C 1008.4 hPa NE 3.2 km/h 3.2 km/h 67% 0 mm
20:43 25.5 °C 18.7 °C 1008.4 hPa NE 1.6 km/h 4.8 km/h 66% 0 mm
20:48 25.5 °C 18.7 °C 1008.4 hPa NE 6.4 km/h 6.4 km/h 66% 0 mm
20:53 25.4 °C 18.6 °C 1008.4 hPa NNE 3.2 km/h 4.8 km/h 66% 0 mm
20:58 25.3 °C 18.5 °C 1008.4 hPa NNE 3.2 km/h 4.8 km/h 66% 0 mm
21:03 25.2 °C 18.6 °C 1008.4 hPa NE 3.2 km/h 4.8 km/h 67% 0 mm
21:08 25.1 °C 18.5 °C 1008.4 hPa NNE 3.2 km/h 4.8 km/h 67% 0 mm
21:13 24.9 °C 18.6 °C 1008.4 hPa NNE 3.2 km/h 4.8 km/h 68% 0 mm
21:18 24.7 °C 18.7 °C 1008.4 hPa NE 1.6 km/h 3.2 km/h 69% 0 mm
21:24 24.7 °C 18.6 °C 1008.4 hPa NNE 4.8 km/h 4.8 km/h 69% 0 mm
21:29 24.5 °C 18.4 °C 1008.4 hPa NNE 1.6 km/h 3.2 km/h 69% 0 mm
21:34 24.3 °C 18.5 °C 1008 hPa NE 3.2 km/h 3.2 km/h 70% 0 mm
21:39 24.2 °C 18.6 °C 1008.4 hPa NE 1.6 km/h 3.2 km/h 71% 0 mm
21:44 24.1 °C 18.5 °C 1008.4 hPa NE 1.6 km/h 3.2 km/h 71% 0 mm
21:49 23.9 °C 18.6 °C 1008.4 hPa NNE 3.2 km/h 3.2 km/h 72% 0 mm
21:54 23.8 °C 18.7 °C 1008.4 hPa NNE 1.6 km/h 6.4 km/h 73% 0 mm
21:59 23.8 °C 18.7 °C 1008.4 hPa NNE 3.2 km/h 4.8 km/h 73% 0 mm
22:04 23.8 °C 18.7 °C 1008.4 hPa NE 4.8 km/h 4.8 km/h 73% 0 mm
22:09 23.9 °C 18.6 °C 1008.4 hPa North 3.2 km/h 6.4 km/h 72% 0 mm
22:14 23.9 °C 18.8 °C 1008.4 hPa North 3.2 km/h 4.8 km/h 73% 0 mm
22:19 23.7 °C 18.8 °C 1008.7 hPa NNW 4.8 km/h 6.4 km/h 74% 0 mm
22:24 23.4 °C 18.7 °C 1008.7 hPa North 3.2 km/h 6.4 km/h 75% 0 mm
22:29 23.3 °C 18.6 °C 1008.7 hPa NE 3.2 km/h 4.8 km/h 75% 0 mm
22:34 23.2 °C 18.6 °C 1008.7 hPa NNE 1.6 km/h 4.8 km/h 75% 0 mm
22:39 23.2 °C 18.6 °C 1008.7 hPa NNE 1.6 km/h 3.2 km/h 75% 0 mm
22:44 23.2 °C 18.5 °C 1008.7 hPa NNE 3.2 km/h 3.2 km/h 75% 0 mm
22:49 23.2 °C 18.5 °C 1009 hPa NNE 1.6 km/h 6.4 km/h 75% 0 mm
22:54 23.2 °C 18.5 °C 1009 hPa NE 3.2 km/h 4.8 km/h 75% 0 mm
22:59 23.1 °C 18.4 °C 1009 hPa NNE 6.4 km/h 6.4 km/h 75% 0 mm
23:04 23.1 °C 18.4 °C 1009 hPa NNE 3.2 km/h 4.8 km/h 75% 0 mm
23:10 22.9 °C 18.5 °C 1008.7 hPa NE 3.2 km/h 6.4 km/h 76% 0 mm
23:15 22.8 °C 18.4 °C 1008.7 hPa NE 1.6 km/h 4.8 km/h 76% 0 mm
23:20 22.8 °C 18.4 °C 1008.7 hPa NE 6.4 km/h 6.4 km/h 76% 0 mm
23:25 22.9 °C 18.5 °C 1008.4 hPa NE 8 km/h 11.3 km/h 76% 0 mm
23:30 23.1 °C 18.6 °C 1008.7 hPa NE 3.2 km/h 11.3 km/h 76% 0 mm
23:35 22.8 °C 18.4 °C 1008.7 hPa NNE 4.8 km/h 6.4 km/h 76% 0 mm
23:40 22.6 °C 18.4 °C 1009 hPa North 1.6 km/h 1.6 km/h 77% 0 mm
23:45 22.3 °C 18.3 °C 1009 hPa NNE 4.8 km/h 4.8 km/h 78% 0 mm
23:48 22.3 °C 18.4 °C 1008.7 hPa NE 4.8 km/h 6.4 km/h 79% 0 mm
23:53 22.2 °C 18.3 °C 1008.7 hPa North 3.2 km/h 6.4 km/h 79% 0 mm
23:58 22.1 °C 18.3 °C 1008.7 hPa NE 6.4 km/h 8 km/h 79% 0 mm
Compliments of Weather Underground